createdAt,value
2018-04-17T00:00:04.712Z,0
2018-04-17T00:01:07.104Z,0
2018-04-17T00:02:10.296Z,0
2018-04-17T00:03:12.916Z,0
2018-04-17T00:04:15.289Z,0
2018-04-17T00:05:17.691Z,0
2018-04-17T00:06:20.189Z,0
2018-04-17T00:07:22.573Z,0
2018-04-17T00:08:24.958Z,0
2018-04-17T00:09:27.511Z,0
2018-04-17T00:10:30.289Z,0
2018-04-17T00:11:33.059Z,0
2018-04-17T00:12:35.714Z,0
2018-04-17T00:13:38.136Z,0
2018-04-17T00:14:40.537Z,0
2018-04-17T00:15:43.031Z,0
2018-04-17T00:16:45.414Z,0
2018-04-17T00:17:47.805Z,0
2018-04-17T00:18:50.199Z,0
2018-04-17T00:19:52.995Z,0
2018-04-17T00:20:55.667Z,0
2018-04-17T00:21:58.325Z,0
2018-04-17T00:23:00.892Z,0
2018-04-17T00:24:03.305Z,0
2018-04-17T00:25:05.707Z,0
2018-04-17T00:26:08.304Z,0
2018-04-17T00:27:11.074Z,0
2018-04-17T00:28:13.746Z,0
2018-04-17T00:29:17.312Z,0
2018-04-17T00:30:19.705Z,0
2018-04-17T00:31:22.453Z,0
2018-04-17T00:32:25.667Z,0
2018-04-17T00:33:28.012Z,0
2018-04-17T00:34:30.721Z,0
2018-04-17T00:35:33.274Z,0
2018-04-17T00:36:35.679Z,0
2018-04-17T00:37:38.060Z,0
2018-04-17T00:38:40.608Z,0
2018-04-17T00:39:43.294Z,0
2018-04-17T00:40:45.998Z,0
2018-04-17T00:41:48.602Z,0
2018-04-17T00:42:50.984Z,0
2018-04-17T00:43:53.358Z,0
2018-04-17T00:44:55.977Z,0
2018-04-17T00:45:58.743Z,0
2018-04-17T00:47:01.123Z,0
2018-04-17T00:48:03.766Z,0
2018-04-17T00:49:06.536Z,0
2018-04-17T00:50:08.916Z,0
2018-04-17T00:51:11.474Z,0
2018-04-17T00:52:14.237Z,0
2018-04-17T00:53:16.627Z,0
2018-04-17T00:54:19.346Z,0
2018-04-17T00:55:21.710Z,0
2018-04-17T00:56:24.106Z,0
2018-04-17T00:57:27.099Z,0
2018-04-17T00:58:29.751Z,0
2018-04-17T00:59:32.417Z,0
2018-04-17T01:00:35.127Z,0
2018-04-17T01:01:37.788Z,0
2018-04-17T01:02:40.182Z,0
2018-04-17T01:03:42.561Z,0
2018-04-17T01:04:45.167Z,0
2018-04-17T01:05:47.559Z,0
2018-04-17T01:06:49.937Z,0
2018-04-17T01:07:52.656Z,0
2018-04-17T01:08:55.036Z,0
2018-04-17T01:09:58.103Z,0
2018-04-17T01:11:00.895Z,0
2018-04-17T01:12:03.275Z,0
2018-04-17T01:13:05.663Z,0
2018-04-17T01:14:08.594Z,0
2018-04-17T01:15:11.261Z,0
2018-04-17T01:16:13.639Z,0
2018-04-17T01:17:16.411Z,0
2018-04-17T01:18:18.783Z,0
2018-04-17T01:19:21.194Z,0
2018-04-17T01:20:23.900Z,0
2018-04-17T01:21:26.285Z,0
2018-04-17T01:22:28.670Z,0
2018-04-17T01:23:31.303Z,0
2018-04-17T01:24:33.696Z,0
2018-04-17T01:25:36.065Z,0
2018-04-17T01:26:38.456Z,0
2018-04-17T01:27:40.838Z,0
2018-04-17T01:28:43.230Z,0
2018-04-17T01:29:45.657Z,0
2018-04-17T01:30:48.133Z,0
2018-04-17T01:31:50.527Z,0
2018-04-17T01:32:52.909Z,0
2018-04-17T01:33:55.398Z,0
2018-04-17T01:34:57.781Z,0
2018-04-17T01:36:00.170Z,0
2018-04-17T01:37:02.827Z,0
2018-04-17T01:38:05.510Z,0
2018-04-17T01:39:08.440Z,0
2018-04-17T01:40:11.043Z,0
2018-04-17T01:41:13.425Z,0
2018-04-17T01:42:15.810Z,0
2018-04-17T01:43:18.501Z,0
2018-04-17T01:44:20.893Z,0
2018-04-17T01:45:23.270Z,0
2018-04-17T01:46:25.649Z,0
2018-04-17T01:47:28.228Z,0
2018-04-17T01:48:30.604Z,0
2018-04-17T01:49:33.287Z,0
2018-04-17T01:50:35.670Z,0
2018-04-17T01:51:38.343Z,0
2018-04-17T01:52:40.721Z,0
2018-04-17T01:53:43.118Z,0
2018-04-17T01:54:46.050Z,0
2018-04-17T01:55:48.432Z,0
2018-04-17T01:56:50.823Z,0
2018-04-17T01:57:53.207Z,0
2018-04-17T01:58:55.591Z,0
2018-04-17T01:59:57.964Z,0
2018-04-17T02:01:00.349Z,0
2018-04-17T02:02:02.743Z,0
2018-04-17T02:03:05.131Z,0
2018-04-17T02:04:07.795Z,0
2018-04-17T02:05:10.173Z,0
2018-04-17T02:06:12.558Z,0
2018-04-17T02:07:14.936Z,0
2018-04-17T02:08:17.601Z,0
2018-04-17T02:09:20.263Z,0
2018-04-17T02:10:22.650Z,0
2018-04-17T02:11:25.022Z,0
2018-04-17T02:12:27.408Z,0
2018-04-17T02:13:29.797Z,0
2018-04-17T02:14:32.740Z,0
2018-04-17T02:15:35.127Z,0
2018-04-17T02:16:37.517Z,0
2018-04-17T02:17:40.174Z,0
2018-04-17T02:18:42.960Z,0
2018-04-17T02:19:45.717Z,0
2018-04-17T02:20:48.102Z,0
2018-04-17T02:21:50.496Z,0
2018-04-17T02:22:52.873Z,0
2018-04-17T02:23:55.256Z,0
2018-04-17T02:24:58.025Z,0
2018-04-17T02:26:00.399Z,0
2018-04-17T02:27:03.068Z,0
2018-04-17T02:28:05.466Z,0
2018-04-17T02:29:07.847Z,0
2018-04-17T02:30:10.221Z,0
2018-04-17T02:31:12.889Z,0
2018-04-17T02:32:15.555Z,0
2018-04-17T02:33:18.239Z,0
2018-04-17T02:34:20.630Z,0
2018-04-17T02:35:23.012Z,0
2018-04-17T02:36:25.401Z,0
2018-04-17T02:37:27.805Z,0
2018-04-17T02:38:30.173Z,0
2018-04-17T02:39:33.112Z,0
2018-04-17T02:40:36.351Z,0
2018-04-17T02:41:38.747Z,0
2018-04-17T02:42:41.120Z,0
2018-04-17T02:43:44.168Z,0
2018-04-17T02:44:46.550Z,0
2018-04-17T02:45:48.933Z,0
2018-04-17T02:46:51.311Z,0
2018-04-17T02:47:53.690Z,0
2018-04-17T02:48:56.354Z,0
2018-04-17T02:49:59.033Z,0
2018-04-17T02:51:01.414Z,0
2018-04-17T02:52:04.448Z,0
2018-04-17T02:53:06.850Z,0
2018-04-17T02:54:09.216Z,0
2018-04-17T02:55:11.909Z,0
2018-04-17T02:56:14.572Z,0
2018-04-17T02:57:17.550Z,0
2018-04-17T02:58:20.440Z,0
2018-04-17T02:59:22.836Z,0
2018-04-17T03:00:25.207Z,0
2018-04-17T03:01:27.987Z,0
2018-04-17T03:02:30.365Z,0
2018-04-17T03:03:32.744Z,0
2018-04-17T03:04:35.792Z,0
2018-04-17T03:05:38.178Z,0
2018-04-17T03:06:40.832Z,0
2018-04-17T03:07:43.235Z,0
2018-04-17T03:08:46.164Z,0
2018-04-17T03:09:48.547Z,0
2018-04-17T03:10:50.930Z,0
2018-04-17T03:11:53.319Z,0
2018-04-17T03:12:55.709Z,0
2018-04-17T03:13:58.085Z,0
2018-04-17T03:15:00.458Z,0
2018-04-17T03:16:02.849Z,0
2018-04-17T03:17:05.616Z,0
2018-04-17T03:18:08.369Z,0
2018-04-17T03:19:10.754Z,0
2018-04-17T03:20:13.427Z,0
2018-04-17T03:21:15.808Z,0
2018-04-17T03:22:18.193Z,0
2018-04-17T03:23:20.570Z,0
2018-04-17T03:24:22.950Z,0
2018-04-17T03:25:25.344Z,0
2018-04-17T03:26:27.721Z,0
2018-04-17T03:27:30.102Z,0
2018-04-17T03:28:32.481Z,0
2018-04-17T03:29:34.869Z,0
2018-04-17T03:30:37.251Z,0
2018-04-17T03:31:39.911Z,0
2018-04-17T03:32:42.567Z,0
2018-04-17T03:33:44.939Z,0
2018-04-17T03:34:47.322Z,0
2018-04-17T03:35:49.700Z,4
2018-04-17T03:36:52.091Z,4
2018-04-17T03:37:54.474Z,4
2018-04-17T03:38:56.863Z,0
2018-04-17T03:39:59.246Z,4
2018-04-17T03:41:01.919Z,4
2018-04-17T03:42:04.302Z,4
2018-04-17T03:43:06.682Z,8
2018-04-17T03:44:09.336Z,8
2018-04-17T03:45:11.715Z,12
2018-04-17T03:46:14.376Z,12
2018-04-17T03:47:16.762Z,16
2018-04-17T03:48:19.142Z,20
2018-04-17T03:49:21.528Z,20
2018-04-17T03:50:23.905Z,24
2018-04-17T03:51:26.300Z,28
2018-04-17T03:52:29.000Z,32
2018-04-17T03:53:31.396Z,40
2018-04-17T03:54:33.767Z,48
2018-04-17T03:55:36.146Z,52
2018-04-17T03:56:39.094Z,60
2018-04-17T03:57:41.476Z,68
2018-04-17T03:58:43.851Z,80
2018-04-17T03:59:46.245Z,92
2018-04-17T04:00:48.607Z,104
2018-04-17T04:01:50.997Z,116
2018-04-17T04:02:53.375Z,128
2018-04-17T04:03:55.760Z,148
2018-04-17T04:04:58.139Z,168
2018-04-17T04:06:00.524Z,184
2018-04-17T04:07:03.199Z,204
2018-04-17T04:08:05.576Z,228
2018-04-17T04:09:08.333Z,252
2018-04-17T04:10:10.708Z,276
2018-04-17T04:11:13.090Z,304
2018-04-17T04:12:15.466Z,336
2018-04-17T04:13:17.857Z,368
2018-04-17T04:14:20.228Z,400
2018-04-17T04:15:22.615Z,436
2018-04-17T04:16:25.395Z,472
2018-04-17T04:17:28.093Z,512
2018-04-17T04:18:30.474Z,556
2018-04-17T04:19:33.246Z,604
2018-04-17T04:20:36.005Z,648
2018-04-17T04:21:38.392Z,700
2018-04-17T04:22:40.777Z,748
2018-04-17T04:23:43.158Z,796
2018-04-17T04:24:45.538Z,848
2018-04-17T04:25:47.924Z,900
2018-04-17T04:26:50.295Z,956
2018-04-17T04:27:52.677Z,1004
2018-04-17T04:28:55.055Z,1056
2018-04-17T04:29:57.424Z,1108
2018-04-17T04:30:59.807Z,1164
2018-04-17T04:32:02.188Z,1220
2018-04-17T04:33:04.552Z,1276
2018-04-17T04:34:07.234Z,1328
2018-04-17T04:35:09.605Z,1384
2018-04-17T04:36:11.984Z,1440
2018-04-17T04:37:14.642Z,1496
2018-04-17T04:38:17.022Z,1552
2018-04-17T04:39:19.386Z,1612
2018-04-17T04:40:21.766Z,1664
2018-04-17T04:41:24.145Z,1724
2018-04-17T04:42:26.517Z,1784
2018-04-17T04:43:28.903Z,1840
2018-04-17T04:44:31.287Z,1896
2018-04-17T04:45:33.667Z,1956
2018-04-17T04:46:36.062Z,2008
2018-04-17T04:47:38.442Z,2064
2018-04-17T04:48:40.815Z,2124
2018-04-17T04:49:43.471Z,2180
2018-04-17T04:50:45.845Z,2236
2018-04-17T04:51:48.216Z,2288
2018-04-17T04:52:50.884Z,2340
2018-04-17T04:53:53.550Z,2396
2018-04-17T04:54:55.929Z,2448
2018-04-17T04:55:58.694Z,2500
2018-04-17T04:57:01.080Z,2552
2018-04-17T04:58:04.126Z,2604
2018-04-17T04:59:06.793Z,2652
2018-04-17T05:00:09.180Z,2700
2018-04-17T05:01:11.564Z,2748
2018-04-17T05:02:13.935Z,2792
2018-04-17T05:03:16.320Z,2840
2018-04-17T05:04:19.365Z,2884
2018-04-17T05:05:22.034Z,2932
2018-04-17T05:06:24.784Z,2980
2018-04-17T05:07:27.466Z,3020
2018-04-17T05:08:29.839Z,3068
2018-04-17T05:09:32.215Z,3112
2018-04-17T05:10:34.866Z,3160
2018-04-17T05:11:37.247Z,3204
2018-04-17T05:12:39.619Z,3240
2018-04-17T05:13:42.010Z,3288
2018-04-17T05:14:45.047Z,3328
2018-04-17T05:15:47.705Z,3364
2018-04-17T05:16:50.369Z,3400
2018-04-17T05:17:52.756Z,3440
2018-04-17T05:18:55.133Z,3464
2018-04-17T05:19:57.821Z,3492
2018-04-17T05:21:00.190Z,3524
2018-04-17T05:22:02.577Z,3552
2018-04-17T05:23:04.956Z,3588
2018-04-17T05:24:08.001Z,3624
2018-04-17T05:25:10.376Z,3648
2018-04-17T05:26:12.761Z,3688
2018-04-17T05:27:15.135Z,3724
2018-04-17T05:28:17.904Z,3764
2018-04-17T05:29:20.270Z,3804
2018-04-17T05:30:22.653Z,3840
2018-04-17T05:31:25.328Z,3884
2018-04-17T05:32:27.707Z,3916
2018-04-17T05:33:30.089Z,3956
2018-04-17T05:34:32.469Z,4008
2018-04-17T05:35:34.854Z,4048
2018-04-17T05:36:37.245Z,4092
2018-04-17T05:37:39.895Z,4132
2018-04-17T05:38:42.295Z,4168
2018-04-17T05:39:44.677Z,4192
2018-04-17T05:40:47.204Z,4232
2018-04-17T05:41:49.986Z,4256
2018-04-17T05:42:52.357Z,4288
2018-04-17T05:43:54.740Z,4320
2018-04-17T05:44:57.119Z,4352
2018-04-17T05:45:59.504Z,4384
2018-04-17T05:47:01.876Z,4408
2018-04-17T05:48:04.258Z,4436
2018-04-17T05:49:07.294Z,4464
2018-04-17T05:50:09.684Z,4492
2018-04-17T05:51:12.407Z,4520
2018-04-17T05:52:15.169Z,4544
2018-04-17T05:53:17.861Z,4576
2018-04-17T05:54:20.239Z,4604
2018-04-17T05:55:22.614Z,4628
2018-04-17T05:56:25.285Z,4664
2018-04-17T05:57:27.663Z,4684
2018-04-17T05:58:30.050Z,4700
2018-04-17T05:59:32.440Z,4724
2018-04-17T06:00:35.113Z,4752
2018-04-17T06:01:37.776Z,4776
2018-04-17T06:02:40.179Z,4792
2018-04-17T06:03:42.837Z,4828
2018-04-17T06:04:45.493Z,4840
2018-04-17T06:05:48.167Z,4888
2018-04-17T06:06:50.539Z,4928
2018-04-17T06:07:52.922Z,4960
2018-04-17T06:08:55.594Z,4992
2018-04-17T06:09:57.971Z,5012
2018-04-17T06:11:00.361Z,5048
2018-04-17T06:12:02.731Z,5100
2018-04-17T06:13:05.124Z,5148
2018-04-17T06:14:07.517Z,5204
2018-04-17T06:15:10.171Z,5248
2018-04-17T06:16:12.557Z,5292
2018-04-17T06:17:15.209Z,5328
2018-04-17T06:18:17.594Z,5376
2018-04-17T06:19:19.981Z,5412
2018-04-17T06:20:22.376Z,5452
2018-04-17T06:21:24.761Z,5480
2018-04-17T06:22:27.142Z,5536
2018-04-17T06:23:29.831Z,5588
2018-04-17T06:24:32.258Z,5648
2018-04-17T06:25:34.662Z,5700
2018-04-17T06:26:37.044Z,5752
2018-04-17T06:27:39.730Z,5812
2018-04-17T06:28:42.101Z,5840
2018-04-17T06:29:44.502Z,5884
2018-04-17T06:30:46.888Z,5920
2018-04-17T06:31:49.369Z,5948
2018-04-17T06:32:51.756Z,6000
2018-04-17T06:33:54.191Z,6052
2018-04-17T06:34:56.570Z,6092
2018-04-17T06:35:59.345Z,6124
2018-04-17T06:37:02.061Z,6156
2018-04-17T06:38:04.471Z,6184
2018-04-17T06:39:06.859Z,6212
2018-04-17T06:40:09.238Z,6248
2018-04-17T06:41:11.683Z,6296
2018-04-17T06:42:14.057Z,6344
2018-04-17T06:43:16.439Z,6380
2018-04-17T06:44:19.216Z,6440
2018-04-17T06:45:21.884Z,6508
2018-04-17T06:46:24.397Z,6584
2018-04-17T06:47:26.856Z,6628
2018-04-17T06:48:29.898Z,6700
2018-04-17T06:49:32.279Z,6756
2018-04-17T06:50:34.661Z,6820
2018-04-17T06:51:37.754Z,6864
2018-04-17T06:52:40.162Z,6916
2018-04-17T06:53:43.642Z,6944
2018-04-17T06:54:46.015Z,7008
2018-04-17T06:55:48.695Z,7068
2018-04-17T06:56:51.086Z,7112
2018-04-17T06:57:53.469Z,7164
2018-04-17T06:58:55.866Z,7228
2018-04-17T06:59:58.530Z,7300
2018-04-17T07:01:00.900Z,7388
2018-04-17T07:02:03.587Z,7460
2018-04-17T07:03:06.276Z,7536
2018-04-17T07:04:08.661Z,7592
2018-04-17T07:05:11.353Z,7660
2018-04-17T07:06:14.524Z,7740
2018-04-17T07:07:17.192Z,7816
2018-04-17T07:08:19.592Z,7884
2018-04-17T07:09:21.960Z,7984
2018-04-17T07:10:24.346Z,8064
2018-04-17T07:11:27.117Z,8144
2018-04-17T07:12:29.494Z,8252
2018-04-17T07:13:31.888Z,8368
2018-04-17T07:14:34.277Z,8448
2018-04-17T07:15:36.664Z,8532
2018-04-17T07:16:39.040Z,8640
2018-04-17T07:17:41.713Z,8764
2018-04-17T07:18:44.094Z,8816
2018-04-17T07:19:46.816Z,8916
2018-04-17T07:20:49.757Z,8972
2018-04-17T07:21:52.317Z,9024
2018-04-17T07:22:55.017Z,9088
2018-04-17T07:23:57.736Z,9136
2018-04-17T07:25:00.520Z,9240
2018-04-17T07:26:03.765Z,9332
2018-04-17T07:27:06.640Z,9360
2018-04-17T07:28:09.424Z,9484
2018-04-17T07:29:12.222Z,9616
2018-04-17T07:30:14.929Z,9728
2018-04-17T07:31:17.788Z,9868
2018-04-17T07:32:20.165Z,10028
2018-04-17T07:33:22.544Z,10144
2018-04-17T07:34:25.213Z,10192
2018-04-17T07:35:27.610Z,10156
2018-04-17T07:36:29.993Z,10112
2018-04-17T07:37:32.371Z,10224
2018-04-17T07:38:34.755Z,10336
2018-04-17T07:39:37.145Z,10408
2018-04-17T07:40:39.522Z,10380
2018-04-17T07:41:41.908Z,10508
2018-04-17T07:42:44.289Z,10572
2018-04-17T07:43:46.676Z,10788
2018-04-17T07:44:49.359Z,10944
2018-04-17T07:45:52.317Z,10952
2018-04-17T07:46:54.706Z,10992
2018-04-17T07:47:57.378Z,11096
2018-04-17T07:48:59.756Z,11264
2018-04-17T07:50:02.153Z,11376
2018-04-17T07:51:04.824Z,11220
2018-04-17T07:52:07.476Z,11236
2018-04-17T07:53:10.149Z,11376
2018-04-17T07:54:12.826Z,11684
2018-04-17T07:55:15.594Z,12048
2018-04-17T07:56:18.104Z,12132
2018-04-17T07:57:20.490Z,11988
2018-04-17T07:58:22.868Z,18496
2018-04-17T07:59:25.264Z,49216
2018-04-17T08:00:27.645Z,89440
2018-04-17T08:01:30.030Z,76704
2018-04-17T08:02:32.421Z,53152
2018-04-17T08:03:34.807Z,43552
2018-04-17T08:04:37.194Z,44736
2018-04-17T08:05:39.577Z,59040
2018-04-17T08:06:42.291Z,57056
2018-04-17T08:07:44.684Z,59840
2018-04-17T08:08:47.393Z,69984
2018-04-17T08:09:50.339Z,73248
2018-04-17T08:10:52.730Z,70240
2018-04-17T08:11:55.169Z,65120
2018-04-17T08:12:58.274Z,63264
2018-04-17T08:14:01.166Z,66848
2018-04-17T08:15:03.553Z,70272
2018-04-17T08:16:05.990Z,75552
2018-04-17T08:17:08.464Z,73312
2018-04-17T08:18:10.839Z,77248
2018-04-17T08:19:13.506Z,77472
2018-04-17T08:20:15.901Z,79200
2018-04-17T08:21:18.290Z,80960
2018-04-17T08:22:20.683Z,87840
2018-04-17T08:23:23.058Z,94624
2018-04-17T08:24:25.453Z,90080
2018-04-17T08:25:28.139Z,87776
2018-04-17T08:26:30.530Z,71808
2018-04-17T08:27:33.296Z,60768
2018-04-17T08:28:35.688Z,63808
2018-04-17T08:29:38.455Z,65600
2018-04-17T08:30:41.233Z,71168
2018-04-17T08:31:43.632Z,80704
2018-04-17T08:32:46.304Z,83136
2018-04-17T08:33:48.700Z,79072
2018-04-17T08:34:51.520Z,65504
2018-04-17T08:35:54.200Z,62176
2018-04-17T08:36:56.612Z,71968
2018-04-17T08:37:58.965Z,83584
2018-04-17T08:39:01.352Z,82656
2018-04-17T08:40:04.404Z,74528
2018-04-17T08:41:06.799Z,77760
2018-04-17T08:42:09.571Z,85312
2018-04-17T08:43:11.953Z,99584
2018-04-17T08:44:14.837Z,120672
2018-04-17T08:45:17.227Z,129184
2018-04-17T08:46:19.894Z,142688
2018-04-17T08:47:22.283Z,143584
2018-04-17T08:48:24.676Z,117216
2018-04-17T08:49:27.073Z,98784
2018-04-17T08:50:29.469Z,92480
2018-04-17T08:51:31.858Z,84384
2018-04-17T08:52:34.586Z,74720
2018-04-17T08:53:36.975Z,76736
2018-04-17T08:54:39.367Z,78464
2018-04-17T08:55:42.151Z,86624
2018-04-17T08:56:44.536Z,89216
2018-04-17T08:57:46.920Z,89824
2018-04-17T08:58:49.318Z,89248
2018-04-17T08:59:51.708Z,83104
2018-04-17T09:00:54.101Z,83552
2018-04-17T09:01:57.169Z,87232
2018-04-17T09:03:00.314Z,95648
2018-04-17T09:04:03.585Z,94944
2018-04-17T09:05:06.014Z,96480
2018-04-17T09:06:08.689Z,93952
2018-04-17T09:07:11.089Z,92064
2018-04-17T09:08:13.469Z,94560
2018-04-17T09:09:15.868Z,94464
2018-04-17T09:10:18.595Z,102176
2018-04-17T09:11:20.986Z,106976
2018-04-17T09:12:23.831Z,110400
2018-04-17T09:13:26.218Z,116480
2018-04-17T09:14:28.602Z,128704
2018-04-17T09:15:31.011Z,134560
2018-04-17T09:16:33.399Z,133120
2018-04-17T09:17:35.795Z,141536
2018-04-17T09:18:38.487Z,136448
2018-04-17T09:19:40.880Z,124896
2018-04-17T09:20:43.580Z,135296
2018-04-17T09:21:45.977Z,144128
2018-04-17T09:22:48.533Z,135872
2018-04-17T09:23:51.043Z,134656
2018-04-17T09:24:53.455Z,132160
2018-04-17T09:25:55.846Z,127552
2018-04-17T09:26:58.257Z,31456
2018-04-17T09:28:00.654Z,129856
2018-04-17T09:29:03.439Z,123520
2018-04-17T09:30:05.842Z,112640
2018-04-17T09:31:08.515Z,104160
2018-04-17T09:32:10.904Z,99456
2018-04-17T09:33:13.634Z,114048
2018-04-17T09:34:17.129Z,32384
2018-04-17T09:35:19.525Z,27264
2018-04-17T09:36:21.926Z,81088
2018-04-17T09:37:24.339Z,30016
2018-04-17T09:38:27.025Z,119200
2018-04-17T09:39:29.409Z,57504
2018-04-17T09:40:32.107Z,109696
2018-04-17T09:41:34.938Z,39136
2018-04-17T09:42:37.727Z,78816
2018-04-17T09:43:40.496Z,115360
2018-04-17T09:44:43.175Z,123008
2018-04-17T09:45:45.568Z,129632
2018-04-17T09:46:47.981Z,42720
2018-04-17T09:47:50.366Z,119328
2018-04-17T09:48:53.078Z,111232
2018-04-17T09:49:56.096Z,122880
2018-04-17T09:50:58.436Z,125536
2018-04-17T09:52:00.842Z,74496
2018-04-17T09:53:03.532Z,26240
2018-04-17T09:54:06.783Z,113088
2018-04-17T09:55:09.179Z,100320
2018-04-17T09:56:12.274Z,117248
2018-04-17T09:57:14.666Z,125184
2018-04-17T09:58:17.119Z,124000
2018-04-17T09:59:19.800Z,67424
2018-04-17T10:00:23.144Z,36576
2018-04-17T10:01:25.546Z,110432
2018-04-17T10:02:28.581Z,24320
2018-04-17T10:03:31.172Z,25536
2018-04-17T10:04:34.292Z,41952
2018-04-17T10:05:36.694Z,32448
2018-04-17T10:06:39.372Z,57984
2018-04-17T10:07:41.768Z,149760
2018-04-17T10:08:44.177Z,149472
2018-04-17T10:09:46.565Z,144768
2018-04-17T10:10:49.345Z,34688
2018-04-17T10:11:51.749Z,29728
2018-04-17T10:12:54.127Z,27616
2018-04-17T10:13:56.910Z,31232
2018-04-17T10:14:59.307Z,35520
2018-04-17T10:16:01.713Z,133760
2018-04-17T10:17:04.103Z,27392
2018-04-17T10:18:06.494Z,31744
2018-04-17T10:19:09.174Z,23680
2018-04-17T10:20:11.569Z,23008
2018-04-17T10:21:13.971Z,24000
2018-04-17T10:22:16.351Z,128800
2018-04-17T10:23:19.037Z,22784
2018-04-17T10:24:21.720Z,20896
2018-04-17T10:25:24.131Z,22400
2018-04-17T10:26:26.513Z,26048
2018-04-17T10:27:28.907Z,31104
2018-04-17T10:28:31.591Z,22752
2018-04-17T10:29:34.560Z,21568
2018-04-17T10:30:36.948Z,22848
2018-04-17T10:31:39.618Z,27808
2018-04-17T10:32:42.013Z,34752
2018-04-17T10:33:44.406Z,32064
2018-04-17T10:34:46.803Z,29472
2018-04-17T10:35:49.580Z,31456
2018-04-17T10:36:51.985Z,32960
2018-04-17T10:37:54.383Z,34048
2018-04-17T10:38:56.775Z,33984
2018-04-17T10:39:59.173Z,36704
2018-04-17T10:41:01.565Z,107040
2018-04-17T10:42:04.538Z,36000
2018-04-17T10:43:06.922Z,28736
2018-04-17T10:44:09.989Z,27136
2018-04-17T10:45:12.368Z,26816
2018-04-17T10:46:14.772Z,30144
2018-04-17T10:47:17.440Z,36256
2018-04-17T10:48:19.845Z,108384
2018-04-17T10:49:22.822Z,39232
2018-04-17T10:50:25.210Z,28864
2018-04-17T10:51:27.905Z,26752
2018-04-17T10:52:30.686Z,31488
2018-04-17T10:53:33.085Z,36320
2018-04-17T10:54:35.770Z,31488
2018-04-17T10:55:38.152Z,29152
2018-04-17T10:56:40.544Z,28800
2018-04-17T10:57:42.952Z,39264
2018-04-17T10:58:46.015Z,44928
2018-04-17T10:59:48.431Z,156032
2018-04-17T11:00:51.522Z,145792
2018-04-17T11:01:53.911Z,64960
2018-04-17T11:02:56.695Z,147776
2018-04-17T11:03:59.444Z,152896
2018-04-17T11:05:01.776Z,41856
2018-04-17T11:06:04.455Z,47136
2018-04-17T11:07:07.132Z,34144
2018-04-17T11:08:09.524Z,32160
2018-04-17T11:09:11.915Z,30176
2018-04-17T11:10:14.867Z,25728
2018-04-17T11:11:17.831Z,23296
2018-04-17T11:12:20.524Z,24352
2018-04-17T11:13:22.920Z,30272
2018-04-17T11:14:25.315Z,77248
2018-04-17T11:15:27.988Z,137248
2018-04-17T11:16:30.667Z,49056
2018-04-17T11:17:33.069Z,105664
2018-04-17T11:18:35.461Z,118688
2018-04-17T11:19:37.861Z,126528
2018-04-17T11:20:40.250Z,132416
2018-04-17T11:21:42.656Z,122912
2018-04-17T11:22:45.331Z,132768
2018-04-17T11:23:47.715Z,87264
2018-04-17T11:24:50.108Z,123360
2018-04-17T11:25:52.883Z,123840
2018-04-17T11:26:55.270Z,123872
2018-04-17T11:27:58.247Z,125664
2018-04-17T11:29:01.068Z,132480
2018-04-17T11:30:03.447Z,71104
2018-04-17T11:31:05.906Z,37120
2018-04-17T11:32:08.294Z,37056
2018-04-17T11:33:10.770Z,34784
2018-04-17T11:34:13.547Z,31776
2018-04-17T11:35:16.001Z,30848
2018-04-17T11:36:18.624Z,32192
2018-04-17T11:37:21.081Z,34560
2018-04-17T11:38:23.487Z,38560
2018-04-17T11:39:25.941Z,37216
2018-04-17T11:40:28.334Z,46528
2018-04-17T11:41:30.800Z,57088
2018-04-17T11:42:33.194Z,41600
2018-04-17T11:43:35.693Z,45408
2018-04-17T11:44:38.373Z,41760
2018-04-17T11:45:40.862Z,123552
2018-04-17T11:46:43.271Z,43648
2018-04-17T11:47:45.662Z,37952
2018-04-17T11:48:48.068Z,37056
2018-04-17T11:49:50.461Z,36224
2018-04-17T11:50:52.855Z,96000
2018-04-17T11:51:55.272Z,48032
2018-04-17T11:52:57.654Z,42240
2018-04-17T11:54:00.044Z,52576
2018-04-17T11:55:02.744Z,124192
2018-04-17T11:56:05.202Z,40704
2018-04-17T11:57:07.709Z,45152
2018-04-17T11:58:10.326Z,64704
2018-04-17T11:59:12.720Z,122848
2018-04-17T12:00:15.738Z,125696
2018-04-17T12:01:18.142Z,133728
2018-04-17T12:02:20.579Z,140960
2018-04-17T12:03:23.032Z,131904
2018-04-17T12:04:25.429Z,113152
2018-04-17T12:05:28.151Z,107776
2018-04-17T12:06:30.540Z,106240
2018-04-17T12:07:33.070Z,108768
2018-04-17T12:08:35.870Z,111808
2018-04-17T12:11:11.427Z,97760
2018-04-17T12:12:14.173Z,25376
2018-04-17T12:13:16.640Z,33472
2018-04-17T12:14:19.706Z,32352
2018-04-17T12:15:22.531Z,109120
2018-04-17T12:16:25.283Z,116608
2018-04-17T12:17:28.009Z,114112
2018-04-17T12:18:30.847Z,36832
2018-04-17T12:19:33.554Z,108768
2018-04-17T12:20:36.241Z,106368
2018-04-17T12:21:38.642Z,108672
2018-04-17T12:22:41.416Z,120512
2018-04-17T12:23:44.213Z,127104
2018-04-17T12:24:46.851Z,116512
2018-04-17T12:25:49.895Z,110880
2018-04-17T12:26:53.147Z,103392
2018-04-17T12:27:55.994Z,115968
2018-04-17T12:28:58.759Z,118976
2018-04-17T12:30:01.302Z,90720
2018-04-17T12:31:04.134Z,29216
2018-04-17T12:32:06.541Z,38272
2018-04-17T12:33:08.941Z,106240
2018-04-17T12:34:11.342Z,106464
2018-04-17T12:35:13.741Z,108256
2018-04-17T12:36:16.139Z,47680
2018-04-17T12:37:18.818Z,107808
2018-04-17T12:38:21.519Z,117120
2018-04-17T12:39:23.913Z,67840
2018-04-17T12:40:26.616Z,28512
2018-04-17T12:41:29.019Z,97088
2018-04-17T12:42:31.412Z,105824
2018-04-17T12:43:33.818Z,108064
2018-04-17T12:44:36.224Z,109120
2018-04-17T12:45:38.626Z,99200
2018-04-17T12:46:41.034Z,99328
2018-04-17T12:47:43.428Z,112160
2018-04-17T12:48:45.834Z,22784
2018-04-17T12:49:48.253Z,25472
2018-04-17T12:50:50.650Z,32864
2018-04-17T12:51:53.055Z,39168
2018-04-17T12:52:55.793Z,42784
2018-04-17T12:53:58.187Z,42496
2018-04-17T12:55:00.608Z,97984
2018-04-17T12:56:03.304Z,82048
2018-04-17T12:57:06.070Z,126624
2018-04-17T12:58:08.473Z,111840
2018-04-17T12:59:10.875Z,114048
2018-04-17T13:00:13.283Z,107776
2018-04-17T13:01:15.684Z,99424
2018-04-17T13:02:18.089Z,105632
2018-04-17T13:03:20.483Z,120384
2018-04-17T13:04:23.273Z,108192
2018-04-17T13:05:25.676Z,95808
2018-04-17T13:06:28.068Z,99328
2018-04-17T13:07:30.476Z,91680
2018-04-17T13:08:32.873Z,103360
2018-04-17T13:09:35.270Z,104960
2018-04-17T13:10:38.061Z,104192
2018-04-17T13:11:40.479Z,102944
2018-04-17T13:12:42.877Z,60032
2018-04-17T13:13:45.299Z,110464
2018-04-17T13:14:47.690Z,96800
2018-04-17T13:15:50.371Z,91072
2018-04-17T13:16:52.776Z,102752
2018-04-17T13:17:55.167Z,121376
2018-04-17T13:18:57.581Z,114304
2018-04-17T13:19:59.982Z,93696
2018-04-17T13:21:02.382Z,87904
2018-04-17T13:22:05.071Z,92384
2018-04-17T13:23:07.777Z,94656
2018-04-17T13:24:10.180Z,98432
2018-04-17T13:25:12.583Z,90720
2018-04-17T13:26:14.978Z,84448
2018-04-17T13:27:17.385Z,90016
2018-04-17T13:28:19.791Z,90720
2018-04-17T13:29:22.193Z,89152
2018-04-17T13:30:24.889Z,87104
2018-04-17T13:31:27.568Z,79808
2018-04-17T13:32:30.267Z,82272
2018-04-17T13:33:32.667Z,87584
2018-04-17T13:34:35.069Z,85792
2018-04-17T13:35:37.470Z,91616
2018-04-17T13:36:40.159Z,87744
2018-04-17T13:37:42.548Z,78048
2018-04-17T13:38:44.967Z,78432
2018-04-17T13:39:47.367Z,82688
2018-04-17T13:40:49.764Z,77376
2018-04-17T13:41:52.167Z,70784
2018-04-17T13:42:54.961Z,74016
2018-04-17T13:43:57.368Z,68672
2018-04-17T13:44:59.776Z,71776
2018-04-17T13:46:02.456Z,76928
2018-04-17T13:47:04.859Z,80256
2018-04-17T13:48:07.253Z,81120
2018-04-17T13:49:09.677Z,78112
2018-04-17T13:50:12.101Z,76000
2018-04-17T13:51:14.504Z,72064
2018-04-17T13:52:16.894Z,75744
2018-04-17T13:53:19.470Z,83520
2018-04-17T13:54:21.854Z,81120
2018-04-17T13:55:24.358Z,73920
2018-04-17T13:56:27.075Z,73120
2018-04-17T13:57:29.860Z,78720
2018-04-17T13:58:32.268Z,79072
2018-04-17T13:59:34.735Z,85344
2018-04-17T14:00:37.131Z,88320